Time;durP1;ratioP1;P1;durP2;ratioP2;P2;SDS_P1;SDS_P2;PMS_P1;PMS_P2;Temp;Humidity;BMP_temperature;BMP_pressure;BME280_temperature;BME280_humidity;BME280_pressure;Samples;Min_cycle;Max_cycle;Signal;HPM_P1;HPM_P2
2023/01/17 00:00:43;;;;;;;;;;;;;;;;;;4986490;28;20726;-79
2023/01/17 00:03:09;;;;;;;;;;;;;;;;;;4987228;28;19913;-77
2023/01/17 00:11:07;;;;;;;;;;;;;;;;;;4991700;28;19921;-78
2023/01/17 00:13:33;;;;;;;;;;;;;;;;;;4989600;28;19926;-78
2023/01/17 00:15:59;;;;;;;;;;;;;;;;;;4997196;28;20290;-78
2023/01/17 00:18:26;;;;;;;;;;;;;;;;;;5001192;28;19929;-78
2023/01/17 00:26:23;;;;;;;;;;;;;;;;;;4986285;28;20380;-78
2023/01/17 01:35:45;;;;;;;;;;;;;;;;;;5003094;28;19929;-77
2023/01/17 01:38:11;;;;;;;;;;;;;;;;;;4964150;28;19985;-78
2023/01/17 01:40:37;;;;;;;;;;;;;;;;;;4981973;28;19985;-78
2023/01/17 01:43:04;;;;;;;;;;;;;;;;;;4956633;28;19918;-78
2023/01/17 01:45:31;;;;;;;;;;;;;;;;;;4966052;28;19927;-78
2023/01/17 01:47:57;;;;;;;;;;;;;;;;;;4966662;28;19918;-78
2023/01/17 01:50:23;;;;;;;;;;;;;;;;;;4969874;28;19922;-78
2023/01/17 01:52:49;;;;;;;;;;;;;;;;;;4950615;28;20382;-78
2023/01/17 01:55:16;;;;;;;;;;;;;;;;;;4972063;28;19930;-78
2023/01/17 01:57:42;;;;;;;;;;;;;;;;;;4966143;28;20013;-78
2023/01/17 02:00:10;;;;;;;;;;;;;;;;;;4971903;28;19921;-78
2023/01/17 02:02:36;;;;;;;;;;;;;;;;;;4967046;28;19922;-78
2023/01/17 02:05:02;;;;;;;;;;;;;;;;;;4980706;28;19922;-78
2023/01/17 02:07:29;;;;;;;;;;;;;;;;;;4956442;28;19922;-78
2023/01/17 02:09:55;;;;;;;;;;;;;;;;;;4967433;28;19933;-79
2023/01/17 02:12:21;;;;;;;;;;;;;;;;;;4964062;28;19934;-78
2023/01/17 02:14:48;;;;;;;;;;;;;;;;;;4961243;28;19922;-78
2023/01/17 02:17:14;;;;;;;;;;;;;;;;;;4981861;28;19965;-78
2023/01/17 02:19:40;;;;;;;;;;;;;;;;;;4951321;28;19969;-78
2023/01/17 02:22:06;;;;;;;;;;;;;;;;;;4971539;28;19918;-77
2023/01/17 02:24:32;;;;;;;;;;;;;;;;;;4962932;28;19942;-79
2023/01/17 02:26:59;;;;;;;;;;;;;;;;;;4966390;28;20386;-80
2023/01/17 02:29:25;;;;;;;;;;;;;;;;;;4964106;28;19915;-79
2023/01/17 02:31:52;;;;;;;;;;;;;;;;;;4970290;28;20004;-79
2023/01/17 02:34:18;;;;;;;;;;;;;;;;;;4963833;28;19926;-80
2023/01/17 02:36:44;;;;;;;;;;;;;;;;;;4980548;28;19922;-79
2023/01/17 02:39:10;;;;;;;;;;;;;;;;;;4978209;28;20005;-78
2023/01/17 02:41:37;;;;;;;;;;;;;;;;;;4967478;28;19933;-79
2023/01/17 02:44:03;;;;;;;;;;;;;;;;;;4956734;28;20404;-79
2023/01/17 02:46:29;;;;;;;;;;;;;;;;;;4948258;28;19922;-78
2023/01/17 02:48:55;;;;;;;;;;;;;;;;;;4979449;28;19965;-79
2023/01/17 02:51:22;;;;;;;;;;;;;;;;;;4957928;28;20347;-78
2023/01/17 02:53:48;;;;;;;;;;;;;;;;;;4955812;28;19963;-78
2023/01/17 02:56:14;;;;;;;;;;;;;;;;;;4977899;28;20302;-77
2023/01/17 02:58:43;;;;;;;;;;;;;;;;;;4984291;28;20197;-78
2023/01/17 03:01:09;;;;;;;;;;;;;;;;;;4989170;28;19929;-78
2023/01/17 03:03:35;;;;;;;;;;;;;;;;;;4984593;28;19918;-78
2023/01/17 03:06:02;;;;;;;;;;;;;;;;;;4981336;28;20386;-77
2023/01/17 03:08:28;;;;;;;;;;;;;;;;;;4984132;28;19925;-78
2023/01/17 03:10:54;;;;;;;;;;;;;;;;;;4986409;28;20298;-78
2023/01/17 03:13:20;;;;;;;;;;;;;;;;;;4987859;28;20016;-79
2023/01/17 03:15:47;;;;;;;;;;;;;;;;;;4985595;28;20349;-78
2023/01/17 03:18:13;;;;;;;;;;;;;;;;;;4971978;28;20400;-77
2023/01/17 03:20:39;;;;;;;;;;;;;;;;;;4997239;28;19944;-78
2023/01/17 03:23:05;;;;;;;;;;;;;;;;;;4981269;28;19918;-79
2023/01/17 03:25:32;;;;;;;;;;;;;;;;;;5000022;28;19988;-79
2023/01/17 03:27:58;;;;;;;;;;;;;;;;;;4985172;28;19969;-79
2023/01/17 03:30:24;;;;;;;;;;;;;;;;;;4988126;28;19917;-79
2023/01/17 03:32:50;;;;;;;;;;;;;;;;;;4980953;28;19933;-78
2023/01/17 03:35:19;;;;;;;;;;;;;;;;;;5010098;28;19929;-77
2023/01/17 03:37:45;;;;;;;;;;;;;;;;;;4980272;28;19969;-79
2023/01/17 03:40:11;;;;;;;;;;;;;;;;;;4981727;28;19921;-77
2023/01/17 03:42:38;;;;;;;;;;;;;;;;;;4985373;28;19918;-77
2023/01/17 03:45:04;;;;;;;;;;;;;;;;;;5000645;28;19995;-77
2023/01/17 03:47:31;;;;;;;;;;;;;;;;;;4999274;28;19948;-78
2023/01/17 03:49:57;;;;;;;;;;;;;;;;;;4979625;28;20382;-78
2023/01/17 03:52:23;;;;;;;;;;;;;;;;;;4984323;28;19922;-79
2023/01/17 03:54:49;;;;;;;;;;;;;;;;;;4992612;28;19921;-79
2023/01/17 03:57:16;;;;;;;;;;;;;;;;;;4971141;28;19972;-78
2023/01/17 03:59:42;;;;;;;;;;;;;;;;;;4984818;28;19926;-78
2023/01/17 04:02:08;;;;;;;;;;;;;;;;;;5002526;28;19984;-78
2023/01/17 04:04:34;;;;;;;;;;;;;;;;;;5020758;28;20028;-78
2023/01/17 04:07:00;;;;;;;;;;;;;;;;;;5007897;28;20332;-78
2023/01/17 04:09:27;;;;;;;;;;;;;;;;;;5023596;28;19912;-77
2023/01/17 04:11:53;;;;;;;;;;;;;;;;;;5014369;28;19914;-78
2023/01/17 04:14:19;;;;;;;;;;;;;;;;;;4995075;28;19928;-78
2023/01/17 04:16:45;;;;;;;;;;;;;;;;;;4991678;28;19921;-78
2023/01/17 04:19:12;;;;;;;;;;;;;;;;;;4983679;28;20019;-78
2023/01/17 04:21:38;;;;;;;;;;;;;;;;;;4987564;28;19933;-78
2023/01/17 04:24:04;;;;;;;;;;;;;;;;;;4970571;28;19918;-78
2023/01/17 04:26:30;;;;;;;;;;;;;;;;;;4981687;28;19918;-78
2023/01/17 04:28:57;;;;;;;;;;;;;;;;;;4999282;28;19991;-78
2023/01/17 04:31:23;;;;;;;;;;;;;;;;;;4978203;28;19918;-78
2023/01/17 04:33:49;;;;;;;;;;;;;;;;;;4999373;28;19930;-78
2023/01/17 04:36:16;;;;;;;;;;;;;;;;;;4983104;28;19937;-77
2023/01/17 04:38:43;;;;;;;;;;;;;;;;;;4983534;28;19922;-78
2023/01/17 04:41:09;;;;;;;;;;;;;;;;;;4985980;28;19921;-78
2023/01/17 04:43:35;;;;;;;;;;;;;;;;;;4983042;28;19943;-78
2023/01/17 04:46:03;;;;;;;;;;;;;;;;;;4970616;28;20266;-78
2023/01/17 04:48:30;;;;;;;;;;;;;;;;;;4985701;28;19921;-77
2023/01/17 04:50:56;;;;;;;;;;;;;;;;;;4982631;28;19925;-77
2023/01/17 04:53:22;;;;;;;;;;;;;;;;;;4987042;28;19925;-77
2023/01/17 04:55:48;;;;;;;;;;;;;;;;;;4983071;28;19937;-77
2023/01/17 04:58:15;;;;;;;;;;;;;;;;;;4974978;28;19965;-77
2023/01/17 05:00:41;;;;;;;;;;;;;;;;;;5008274;28;19948;-77
2023/01/17 05:03:07;;;;;;;;;;;;;;;;;;5000379;28;19925;-77
2023/01/17 05:05:33;;;;;;;;;;;;;;;;;;4994528;28;19997;-78
2023/01/17 05:08:00;;;;;;;;;;;;;;;;;;4983988;28;19921;-78
2023/01/17 05:10:26;;;;;;;;;;;;;;;;;;4989152;28;19918;-78
2023/01/17 05:12:52;;;;;;;;;;;;;;;;;;4985654;28;19925;-78
2023/01/17 05:15:18;;;;;;;;;;;;;;;;;;4984763;28;20086;-77
2023/01/17 05:17:44;;;;;;;;;;;;;;;;;;4974987;28;20013;-78
2023/01/17 05:20:11;;;;;;;;;;;;;;;;;;4967730;28;20781;-78
2023/01/17 05:22:37;;;;;;;;;;;;;;;;;;4981098;28;20281;-78
2023/01/17 05:25:03;;;;;;;;;;;;;;;;;;4977401;28;19953;-78
2023/01/17 05:27:29;;;;;;;;;;;;;;;;;;4997211;28;19926;-78
2023/01/17 05:29:56;;;;;;;;;;;;;;;;;;4998834;28;19918;-78
2023/01/17 05:32:22;;;;;;;;;;;;;;;;;;4975736;28;19925;-78
2023/01/17 05:34:49;;;;;;;;;;;;;;;;;;4999932;28;19976;-78
2023/01/17 05:37:16;;;;;;;;;;;;;;;;;;4976256;28;19948;-77
2023/01/17 05:39:42;;;;;;;;;;;;;;;;;;4993978;28;19925;-77
2023/01/17 05:42:08;;;;;;;;;;;;;;;;;;4993683;28;19918;-79
2023/01/17 05:44:34;;;;;;;;;;;;;;;;;;4978438;28;19925;-78
2023/01/17 05:47:01;;;;;;;;;;;;;;;;;;5000768;28;19929;-78
2023/01/17 05:49:27;;;;;;;;;;;;;;;;;;4977593;28;19923;-77
2023/01/17 05:51:53;;;;;;;;;;;;;;;;;;4985625;28;19914;-78
2023/01/17 05:54:19;;;;;;;;;;;;;;;;;;4972859;28;20294;-78
2023/01/17 05:56:45;;;;;;;;;;;;;;;;;;5000303;28;19945;-77
2023/01/17 05:59:12;;;;;;;;;;;;;;;;;;5000413;28;20394;-77
2023/01/17 06:01:38;;;;;;;;;;;;;;;;;;4978133;28;19976;-79
2023/01/17 06:04:04;;;;;;;;;;;;;;;;;;4989059;28;19921;-79
2023/01/17 06:06:30;;;;;;;;;;;;;;;;;;4994276;28;20345;-77
2023/01/17 06:08:57;;;;;;;;;;;;;;;;;;4993990;28;19926;-78
2023/01/17 06:11:23;;;;;;;;;;;;;;;;;;4996388;28;20508;-78
2023/01/17 06:13:49;;;;;;;;;;;;;;;;;;4988285;28;19934;-73
2023/01/17 06:16:15;;;;;;;;;;;;;;;;;;4986389;28;20382;-75
2023/01/17 06:18:41;;;;;;;;;;;;;;;;;;4980757;28;20638;-75
2023/01/17 06:21:10;;;;;;;;;;;;;;;;;;4972412;28;19925;-75
2023/01/17 06:23:36;;;;;;;;;;;;;;;;;;4972212;28;19930;-74
2023/01/17 06:26:03;;;;;;;;;;;;;;;;;;4974250;28;20576;-75
2023/01/17 06:28:29;;;;;;;;;;;;;;;;;;4980546;28;19925;-74
2023/01/17 06:30:55;;;;;;;;;;;;;;;;;;4999162;28;19914;-75
2023/01/17 06:33:22;;;;;;;;;;;;;;;;;;4981884;28;20004;-75
2023/01/17 06:35:48;;;;;;;;;;;;;;;;;;4998041;28;19924;-75
2023/01/17 06:38:14;;;;;;;;;;;;;;;;;;4981943;28;19969;-76
2023/01/17 06:40:40;;;;;;;;;;;;;;;;;;4984164;28;19924;-75
2023/01/17 06:43:07;;;;;;;;;;;;;;;;;;4970363;28;19925;-75
2023/01/17 06:45:33;;;;;;;;;;;;;;;;;;4971628;28;19925;-74
2023/01/17 06:47:59;;;;;;;;;;;;;;;;;;5001988;28;19917;-75
2023/01/17 06:50:25;;;;;;;;;;;;;;;;;;4980686;28;19924;-75
2023/01/17 06:52:52;;;;;;;;;;;;;;;;;;4981478;28;19925;-75
2023/01/17 06:55:18;;;;;;;;;;;;;;;;;;4976355;28;19922;-75
2023/01/17 06:57:44;;;;;;;;;;;;;;;;;;4984910;28;20329;-75
2023/01/17 07:00:10;;;;;;;;;;;;;;;;;;4984338;28;19917;-75
2023/01/17 07:02:37;;;;;;;;;;;;;;;;;;4982159;28;19968;-75
2023/01/17 07:05:03;;;;;;;;;;;;;;;;;;4975421;28;19926;-75
2023/01/17 07:07:30;;;;;;;;;;;;;;;;;;4962782;28;20304;-75
2023/01/17 07:09:56;;;;;;;;;;;;;;;;;;4966363;28;19918;-75
2023/01/17 07:12:22;;;;;;;;;;;;;;;;;;4987470;28;20389;-75
2023/01/17 07:14:48;;;;;;;;;;;;;;;;;;4984632;28;19980;-75
2023/01/17 07:17:15;;;;;;;;;;;;;;;;;;4988374;28;20297;-75
2023/01/17 07:19:41;;;;;;;;;;;;;;;;;;4984525;28;19968;-74
2023/01/17 07:22:08;;;;;;;;;;;;;;;;;;4978094;28;20389;-75
2023/01/17 07:24:36;;;;;;;;;;;;;;;;;;5011232;28;19925;-74
2023/01/17 07:27:02;;;;;;;;;;;;;;;;;;5000136;28;19930;-74
2023/01/17 07:29:28;;;;;;;;;;;;;;;;;;4993917;28;19914;-75
2023/01/17 07:31:54;;;;;;;;;;;;;;;;;;4985034;28;19972;-76
2023/01/17 07:34:21;;;;;;;;;;;;;;;;;;4973966;28;19922;-75
2023/01/17 07:36:48;;;;;;;;;;;;;;;;;;4996214;28;19924;-76
2023/01/17 07:39:14;;;;;;;;;;;;;;;;;;4980447;28;20534;-76
2023/01/17 07:41:41;;;;;;;;;;;;;;;;;;4984627;28;20369;-76
2023/01/17 07:44:07;;;;;;;;;;;;;;;;;;4984521;28;19934;-76
2023/01/17 07:46:34;;;;;;;;;;;;;;;;;;4990238;28;20500;-76
2023/01/17 07:49:00;;;;;;;;;;;;;;;;;;4972717;28;19933;-76
2023/01/17 07:51:26;;;;;;;;;;;;;;;;;;4984161;28;19936;-76
2023/01/17 07:53:52;;;;;;;;;;;;;;;;;;4992029;28;19930;-76
2023/01/17 07:56:19;;;;;;;;;;;;;;;;;;4970893;28;20000;-77
2023/01/17 07:58:46;;;;;;;;;;;;;;;;;;4991578;28;19996;-76
2023/01/17 08:01:12;;;;;;;;;;;;;;;;;;4993411;28;20269;-77
2023/01/17 08:03:39;;;;;;;;;;;;;;;;;;4977674;28;20573;-75
2023/01/17 08:06:05;;;;;;;;;;;;;;;;;;4987322;28;19921;-75
2023/01/17 08:08:31;;;;;;;;;;;;;;;;;;4992561;28;19929;-75
2023/01/17 08:10:57;;;;;;;;;;;;;;;;;;4982402;28;20638;-75
2023/01/17 08:13:24;;;;;;;;;;;;;;;;;;4992829;28;19941;-76
2023/01/17 08:15:50;;;;;;;;;;;;;;;;;;4974327;28;19929;-76
2023/01/17 08:18:16;;;;;;;;;;;;;;;;;;4992627;28;19925;-75
2023/01/17 08:20:43;;;;;;;;;;;;;;;;;;4974906;28;20377;-75
2023/01/17 08:23:09;;;;;;;;;;;;;;;;;;4974436;28;19921;-76
2023/01/17 08:25:35;;;;;;;;;;;;;;;;;;4976599;28;19973;-75
2023/01/17 08:28:01;;;;;;;;;;;;;;;;;;4993282;28;19996;-75
2023/01/17 08:30:28;;;;;;;;;;;;;;;;;;4977575;28;19922;-75
2023/01/17 08:32:54;;;;;;;;;;;;;;;;;;4995845;28;20374;-77
2023/01/17 08:35:20;;;;;;;;;;;;;;;;;;4979927;28;19936;-77
2023/01/17 08:37:46;;;;;;;;;;;;;;;;;;4997137;28;20455;-75
2023/01/17 08:40:15;;;;;;;;;;;;;;;;;;4983689;28;19924;-76
2023/01/17 08:42:42;;;;;;;;;;;;;;;;;;4985464;28;19972;-75
2023/01/17 08:45:09;;;;;;;;;;;;;;;;;;4999445;28;19988;-74
2023/01/17 08:47:35;;;;;;;;;;;;;;;;;;4971006;28;20040;-75
2023/01/17 08:50:01;;;;;;;;;;;;;;;;;;4981089;28;20453;-75
2023/01/17 08:52:27;;;;;;;;;;;;;;;;;;4999131;28;19977;-75
2023/01/17 08:54:54;;;;;;;;;;;;;;;;;;4988605;28;19921;-75
2023/01/17 08:57:20;;;;;;;;;;;;;;;;;;4989356;28;19945;-75
2023/01/17 08:59:46;;;;;;;;;;;;;;;;;;5003176;28;19921;-74
2023/01/17 09:02:13;;;;;;;;;;;;;;;;;;4993166;28;19925;-76
2023/01/17 09:04:39;;;;;;;;;;;;;;;;;;4992741;28;19972;-75
2023/01/17 09:07:06;;;;;;;;;;;;;;;;;;4989373;28;20081;-75
2023/01/17 09:09:32;;;;;;;;;;;;;;;;;;4993692;28;20008;-75
2023/01/17 09:11:58;;;;;;;;;;;;;;;;;;4986618;28;19965;-75
2023/01/17 09:14:24;;;;;;;;;;;;;;;;;;4995155;28;20299;-74
2023/01/17 09:16:51;;;;;;;;;;;;;;;;;;4990578;28;19964;-74
2023/01/17 09:19:17;;;;;;;;;;;;;;;;;;5003128;28;19964;-77
2023/01/17 09:21:43;;;;;;;;;;;;;;;;;;4982098;28;20345;-76
2023/01/17 09:24:10;;;;;;;;;;;;;;;;;;4990349;28;19932;-76
2023/01/17 09:26:36;;;;;;;;;;;;;;;;;;4989517;28;19925;-76
2023/01/17 09:29:02;;;;;;;;;;;;;;;;;;4987664;28;20541;-75
2023/01/17 09:31:31;;;;;;;;;;;;;;;;;;4987889;28;19918;-75
2023/01/17 09:33:58;;;;;;;;;;;;;;;;;;4983182;28;19934;-76
2023/01/17 09:36:27;;;;;;;;;;;;;;;;;;5004086;28;20423;-74
2023/01/17 09:38:54;;;;;;;;;;;;;;;;;;4985675;28;19925;-74
2023/01/17 09:41:20;;;;;;;;;;;;;;;;;;4993910;28;19924;-76
2023/01/17 09:43:47;;;;;;;;;;;;;;;;;;4997786;28;19984;-76
2023/01/17 09:46:13;;;;;;;;;;;;;;;;;;4992862;28;19940;-78
2023/01/17 09:48:39;;;;;;;;;;;;;;;;;;4978089;28;20346;-76
2023/01/17 09:51:06;;;;;;;;;;;;;;;;;;4986664;28;20405;-76
2023/01/17 09:53:32;;;;;;;;;;;;;;;;;;4981560;28;19926;-75
2023/01/17 09:55:58;;;;;;;;;;;;;;;;;;4980237;28;19926;-76
2023/01/17 09:58:25;;;;;;;;;;;;;;;;;;4973350;28;19925;-75
2023/01/17 10:00:52;;;;;;;;;;;;;;;;;;5001378;28;20450;-75
2023/01/17 10:03:18;;;;;;;;;;;;;;;;;;4980524;28;19932;-75
2023/01/17 10:05:44;;;;;;;;;;;;;;;;;;4990311;28;19928;-75
2023/01/17 10:08:11;;;;;;;;;;;;;;;;;;4970565;28;20436;-75
2023/01/17 10:10:37;;;;;;;;;;;;;;;;;;4985148;28;20382;-75
2023/01/17 10:13:03;;;;;;;;;;;;;;;;;;4980633;28;19930;-74
2023/01/17 10:15:29;;;;;;;;;;;;;;;;;;4983770;28;19922;-75
2023/01/17 10:17:55;;;;;;;;;;;;;;;;;;4985075;28;19921;-75
2023/01/17 10:20:24;;;;;;;;;;;;;;;;;;4982653;28;19921;-76
2023/01/17 10:22:50;;;;;;;;;;;;;;;;;;5000485;28;19941;-75
2023/01/17 10:25:17;;;;;;;;;;;;;;;;;;4986513;28;19918;-76
2023/01/17 10:27:43;;;;;;;;;;;;;;;;;;4965033;28;20400;-76
2023/01/17 10:30:09;;;;;;;;;;;;;;;;;;4986236;28;19922;-76
2023/01/17 10:32:35;;;;;;;;;;;;;;;;;;4979029;28;19925;-76
2023/01/17 10:35:01;;;;;;;;;;;;;;;;;;4986184;28;20424;-75
2023/01/17 10:37:28;;;;;;;;;;;;;;;;;;4983456;28;19926;-75
2023/01/17 10:39:54;;;;;;;;;;;;;;;;;;4986324;28;19985;-76
2023/01/17 10:42:20;;;;;;;;;;;;;;;;;;4999185;28;19966;-76
2023/01/17 10:44:46;;;;;;;;;;;;;;;;;;5005122;28;19926;-76
2023/01/17 10:47:13;;;;;;;;;;;;;;;;;;5015011;28;19918;-78
2023/01/17 10:49:39;;;;;;;;;;;;;;;;;;5006661;28;19914;-76
2023/01/17 10:52:05;;;;;;;;;;;;;;;;;;4997205;28;19922;-77
2023/01/17 10:54:31;;;;;;;;;;;;;;;;;;4987502;28;19926;-75
2023/01/17 10:56:58;;;;;;;;;;;;;;;;;;4986429;28;20723;-75
2023/01/17 10:59:24;;;;;;;;;;;;;;;;;;4984252;28;19918;-75
2023/01/17 11:01:50;;;;;;;;;;;;;;;;;;4990364;28;19921;-76
2023/01/17 11:04:16;;;;;;;;;;;;;;;;;;4981552;28;19928;-76
2023/01/17 11:06:45;;;;;;;;;;;;;;;;;;4984962;28;19930;-76
2023/01/17 11:09:12;;;;;;;;;;;;;;;;;;4981805;28;19981;-75
2023/01/17 11:11:38;;;;;;;;;;;;;;;;;;4980780;28;20440;-75
2023/01/17 11:14:04;;;;;;;;;;;;;;;;;;4982827;28;20365;-76
2023/01/17 11:16:30;;;;;;;;;;;;;;;;;;4982292;28;19957;-76
2023/01/17 11:18:57;;;;;;;;;;;;;;;;;;4984020;28;19921;-75
2023/01/17 11:21:23;;;;;;;;;;;;;;;;;;4981227;28;19926;-75
2023/01/17 11:23:49;;;;;;;;;;;;;;;;;;4977242;28;21196;-75
2023/01/17 11:26:16;;;;;;;;;;;;;;;;;;4977513;28;19976;-75
2023/01/17 11:28:42;;;;;;;;;;;;;;;;;;4985271;28;19921;-75
2023/01/17 11:31:08;;;;;;;;;;;;;;;;;;4975400;28;19922;-74
2023/01/17 11:33:43;;;;;;;;;;;;;;;;;;4999841;28;19929;-75
2023/01/17 11:36:10;;;;;;;;;;;;;;;;;;4981123;28;20464;-75
2023/01/17 11:38:36;;;;;;;;;;;;;;;;;;4977440;28;19914;-75
2023/01/17 11:41:19;;;;;;;;;;;;;;;;;;4974426;28;19972;-75
2023/01/17 11:43:45;;;;;;;;;;;;;;;;;;4959625;28;20493;-75
2023/01/17 11:46:11;;;;;;;;;;;;;;;;;;4988706;28;19965;-75
2023/01/17 11:48:38;;;;;;;;;;;;;;;;;;4976688;28;20294;-75
2023/01/17 11:51:04;;;;;;;;;;;;;;;;;;4980666;28;19922;-76
2023/01/17 11:53:30;;;;;;;;;;;;;;;;;;4979815;28;19925;-77
2023/01/17 11:55:56;;;;;;;;;;;;;;;;;;4963562;28;19954;-76
2023/01/17 11:58:23;;;;;;;;;;;;;;;;;;4988901;28;19918;-77
2023/01/17 12:00:49;;;;;;;;;;;;;;;;;;4988163;28;19918;-76
2023/01/17 12:03:16;;;;;;;;;;;;;;;;;;4977508;28;20008;-76
2023/01/17 12:05:42;;;;;;;;;;;;;;;;;;4989177;28;20436;-77
2023/01/17 12:08:08;;;;;;;;;;;;;;;;;;4984067;28;20408;-77
2023/01/17 12:10:34;;;;;;;;;;;;;;;;;;4982175;28;19917;-77
2023/01/17 12:15:46;;;;;;;;;;;;;;;;;;4973314;28;20362;-77
2023/01/17 12:18:12;;;;;;;;;;;;;;;;;;4981743;28;19926;-76
2023/01/17 12:20:38;;;;;;;;;;;;;;;;;;4983037;28;19922;-77
2023/01/17 12:23:05;;;;;;;;;;;;;;;;;;4983925;28;19983;-76
2023/01/17 12:25:31;;;;;;;;;;;;;;;;;;4969984;28;19992;-77
2023/01/17 12:27:57;;;;;;;;;;;;;;;;;;4987968;28;19918;-75
2023/01/17 12:30:24;;;;;;;;;;;;;;;;;;4990208;28;19945;-75
2023/01/17 12:32:50;;;;;;;;;;;;;;;;;;4978896;28;19926;-75
2023/01/17 12:35:16;;;;;;;;;;;;;;;;;;4987851;28;19945;-75
2023/01/17 12:37:42;;;;;;;;;;;;;;;;;;4983603;28;19918;-75
2023/01/17 12:40:09;;;;;;;;;;;;;;;;;;4987829;28;19972;-75
2023/01/17 12:42:35;;;;;;;;;;;;;;;;;;4986849;28;20366;-75
2023/01/17 12:45:01;;;;;;;;;;;;;;;;;;4990094;28;19922;-75
2023/01/17 12:47:29;;;;;;;;;;;;;;;;;;4998365;28;19918;-75
2023/01/17 12:49:55;;;;;;;;;;;;;;;;;;4987649;28;20269;-75
2023/01/17 12:52:21;;;;;;;;;;;;;;;;;;5002559;28;19926;-75
2023/01/17 12:54:47;;;;;;;;;;;;;;;;;;4986691;28;19926;-75
2023/01/17 12:57:14;;;;;;;;;;;;;;;;;;4990405;28;19976;-76
2023/01/17 12:59:40;;;;;;;;;;;;;;;;;;4988787;28;19917;-75
2023/01/17 13:02:06;;;;;;;;;;;;;;;;;;4983226;28;19929;-75
2023/01/17 13:04:32;;;;;;;;;;;;;;;;;;4986109;28;19992;-76
2023/01/17 13:06:59;;;;;;;;;;;;;;;;;;4985417;28;19925;-74
2023/01/17 13:09:26;;;;;;;;;;;;;;;;;;5002009;28;19921;-76
2023/01/17 13:11:53;;;;;;;;;;;;;;;;;;4996445;28;19917;-75
2023/01/17 13:14:19;;;;;;;;;;;;;;;;;;4987140;28;19996;-75
2023/01/17 13:16:45;;;;;;;;;;;;;;;;;;4994291;28;19932;-75
2023/01/17 13:19:11;;;;;;;;;;;;;;;;;;4986774;28;19925;-75
2023/01/17 13:21:38;;;;;;;;;;;;;;;;;;4974520;28;19922;-75
2023/01/17 13:24:07;;;;;;;;;;;;;;;;;;4996133;28;19922;-75
2023/01/17 13:26:35;;;;;;;;;;;;;;;;;;4974151;28;19917;-74
2023/01/17 13:29:01;;;;;;;;;;;;;;;;;;5007577;28;19921;-75
2023/01/17 13:31:27;;;;;;;;;;;;;;;;;;4988452;28;19944;-76
2023/01/17 13:33:54;;;;;;;;;;;;;;;;;;5004881;28;19957;-75
2023/01/17 13:36:20;;;;;;;;;;;;;;;;;;4989222;28;19922;-75
2023/01/17 13:38:53;;;;;;;;;;;;;;;;;;4988074;28;19921;-75
2023/01/17 13:41:20;;;;;;;;;;;;;;;;;;4997458;28;20644;-75
2023/01/17 13:44:20;;;;;;;;;;;;;;;;;;4987718;28;19921;-75
2023/01/17 13:46:32;;;;;;;;;;;;;;;;;;4978143;28;20400;-75
2023/01/17 13:48:58;;;;;;;;;;;;;;;;;;4980602;28;19964;-75
2023/01/17 13:51:24;;;;;;;;;;;;;;;;;;4986996;28;20459;-78
2023/01/17 13:53:51;;;;;;;;;;;;;;;;;;5005153;28;19941;-75
2023/01/17 13:56:17;;;;;;;;;;;;;;;;;;4987886;28;19934;-75
2023/01/17 13:58:44;;;;;;;;;;;;;;;;;;4988459;28;19968;-75
2023/01/17 14:01:10;;;;;;;;;;;;;;;;;;4981273;28;19917;-75
2023/01/17 14:03:36;;;;;;;;;;;;;;;;;;4989229;28;19928;-75
2023/01/17 14:06:02;;;;;;;;;;;;;;;;;;4992992;28;19987;-74
2023/01/17 14:08:30;;;;;;;;;;;;;;;;;;5004769;28;19926;-75
2023/01/17 14:10:57;;;;;;;;;;;;;;;;;;5006426;28;19922;-75
2023/01/17 14:13:23;;;;;;;;;;;;;;;;;;4991603;28;20327;-76
2023/01/17 14:15:50;;;;;;;;;;;;;;;;;;5010255;28;20690;-75
2023/01/17 14:18:16;;;;;;;;;;;;;;;;;;4986531;28;19972;-74
2023/01/17 14:20:42;;;;;;;;;;;;;;;;;;4990491;28;19921;-76
2023/01/17 14:23:08;;;;;;;;;;;;;;;;;;4990028;28;19988;-78
2023/01/17 14:25:34;;;;;;;;;;;;;;;;;;4983150;28;19949;-75
2023/01/17 14:28:01;;;;;;;;;;;;;;;;;;4988260;28;19980;-75
2023/01/17 14:30:27;;;;;;;;;;;;;;;;;;4986561;28;19967;-75
2023/01/17 14:32:53;;;;;;;;;;;;;;;;;;4983882;28;19929;-75
2023/01/17 14:35:19;;;;;;;;;;;;;;;;;;4972140;28;20393;-77
2023/01/17 14:37:45;;;;;;;;;;;;;;;;;;4986635;28;19960;-76
2023/01/17 14:40:12;;;;;;;;;;;;;;;;;;4970761;28;19981;-77
2023/01/17 14:42:38;;;;;;;;;;;;;;;;;;4983509;28;19976;-76
2023/01/17 14:45:04;;;;;;;;;;;;;;;;;;4971033;28;20353;-77
2023/01/17 14:47:30;;;;;;;;;;;;;;;;;;4984140;28;19952;-76
2023/01/17 14:49:56;;;;;;;;;;;;;;;;;;4987213;28;19927;-76
2023/01/17 14:52:23;;;;;;;;;;;;;;;;;;4980121;28;19996;-77
2023/01/17 14:54:49;;;;;;;;;;;;;;;;;;4986758;28;19933;-76
2023/01/17 14:57:15;;;;;;;;;;;;;;;;;;4971520;28;20928;-76
2023/01/17 14:59:41;;;;;;;;;;;;;;;;;;4968382;28;19988;-77
2023/01/17 15:02:08;;;;;;;;;;;;;;;;;;4984851;28;19992;-77
2023/01/17 15:04:37;;;;;;;;;;;;;;;;;;4989683;28;20439;-77
2023/01/17 15:07:04;;;;;;;;;;;;;;;;;;4984151;28;20373;-77
2023/01/17 15:09:30;;;;;;;;;;;;;;;;;;5000061;28;19917;-77
2023/01/17 15:11:56;;;;;;;;;;;;;;;;;;4980948;28;19925;-78
2023/01/17 15:14:23;;;;;;;;;;;;;;;;;;4983260;28;19980;-75
2023/01/17 15:16:50;;;;;;;;;;;;;;;;;;5006504;28;19917;-74
2023/01/17 15:19:16;;;;;;;;;;;;;;;;;;4977047;28;19984;-75
2023/01/17 15:21:43;;;;;;;;;;;;;;;;;;4985470;28;20381;-75
2023/01/17 15:24:09;;;;;;;;;;;;;;;;;;4994256;28;19953;-76
2023/01/17 15:26:35;;;;;;;;;;;;;;;;;;4994005;28;19949;-76
2023/01/17 15:29:01;;;;;;;;;;;;;;;;;;4983375;28;19922;-76
2023/01/17 15:31:28;;;;;;;;;;;;;;;;;;4988441;28;19976;-77
2023/01/17 15:33:54;;;;;;;;;;;;;;;;;;4986669;28;19977;-77
2023/01/17 15:36:20;;;;;;;;;;;;;;;;;;4978307;28;19991;-75
2023/01/17 15:38:48;;;;;;;;;;;;;;;;;;4989811;28;20436;-76
2023/01/17 15:41:14;;;;;;;;;;;;;;;;;;5002348;28;19922;-78
2023/01/17 15:43:40;;;;;;;;;;;;;;;;;;4993264;28;19969;-76
2023/01/17 15:46:06;;;;;;;;;;;;;;;;;;4991145;28;20278;-76
2023/01/17 15:48:33;;;;;;;;;;;;;;;;;;5008855;28;19948;-76
2023/01/17 15:50:59;;;;;;;;;;;;;;;;;;4980040;28;19921;-76
2023/01/17 15:53:25;;;;;;;;;;;;;;;;;;4987486;28;20004;-77
2023/01/17 15:55:51;;;;;;;;;;;;;;;;;;4970290;28;19976;-76
2023/01/17 15:58:18;;;;;;;;;;;;;;;;;;4984491;28;19925;-76
2023/01/17 16:00:45;;;;;;;;;;;;;;;;;;5001496;28;19961;-76
2023/01/17 16:03:11;;;;;;;;;;;;;;;;;;4977348;28;19922;-76
2023/01/17 16:05:42;;;;;;;;;;;;;;;;;;4986401;28;19914;-76
2023/01/17 16:08:08;;;;;;;;;;;;;;;;;;4981122;28;19952;-75
2023/01/17 16:10:35;;;;;;;;;;;;;;;;;;4986018;28;19918;-76
2023/01/17 16:13:01;;;;;;;;;;;;;;;;;;4977887;28;19918;-76
2023/01/17 16:15:27;;;;;;;;;;;;;;;;;;4993400;28;19925;-76
2023/01/17 16:17:53;;;;;;;;;;;;;;;;;;4995887;28;19938;-78
2023/01/17 16:20:20;;;;;;;;;;;;;;;;;;4986584;28;20008;-76
2023/01/17 16:22:47;;;;;;;;;;;;;;;;;;4980244;28;20725;-75
2023/01/17 16:25:13;;;;;;;;;;;;;;;;;;4994140;28;19918;-76
2023/01/17 16:27:41;;;;;;;;;;;;;;;;;;4984888;28;20402;-76
2023/01/17 16:30:08;;;;;;;;;;;;;;;;;;4992972;28;19922;-77
2023/01/17 16:32:34;;;;;;;;;;;;;;;;;;4986374;28;19953;-76
2023/01/17 16:35:00;;;;;;;;;;;;;;;;;;4983758;28;19992;-76
2023/01/17 16:37:26;;;;;;;;;;;;;;;;;;4984810;28;19917;-77
2023/01/17 16:39:53;;;;;;;;;;;;;;;;;;4983955;28;19922;-78
2023/01/17 16:42:19;;;;;;;;;;;;;;;;;;4987604;28;19929;-77
2023/01/17 16:44:46;;;;;;;;;;;;;;;;;;4982874;28;19929;-76
2023/01/17 16:47:12;;;;;;;;;;;;;;;;;;4981337;28;20354;-75
2023/01/17 16:49:38;;;;;;;;;;;;;;;;;;4977330;28;19922;-76
2023/01/17 16:52:05;;;;;;;;;;;;;;;;;;4983359;28;19918;-76
2023/01/17 16:54:31;;;;;;;;;;;;;;;;;;4994454;28;19930;-77
2023/01/17 16:56:57;;;;;;;;;;;;;;;;;;4997450;28;20385;-76
2023/01/17 16:59:24;;;;;;;;;;;;;;;;;;4995333;28;19913;-76
2023/01/17 17:01:51;;;;;;;;;;;;;;;;;;5002399;28;20325;-76
2023/01/17 17:04:17;;;;;;;;;;;;;;;;;;5003358;28;19961;-75
2023/01/17 17:06:44;;;;;;;;;;;;;;;;;;4988102;28;20432;-75
2023/01/17 17:09:10;;;;;;;;;;;;;;;;;;4997589;28;19921;-75
2023/01/17 17:11:36;;;;;;;;;;;;;;;;;;5000308;28;19921;-77
2023/01/17 17:14:03;;;;;;;;;;;;;;;;;;4977245;28;20349;-75
2023/01/17 17:16:29;;;;;;;;;;;;;;;;;;4981237;28;19926;-77
2023/01/17 17:18:55;;;;;;;;;;;;;;;;;;4981205;28;19924;-77
2023/01/17 17:21:21;;;;;;;;;;;;;;;;;;4983175;28;19980;-76
2023/01/17 17:23:51;;;;;;;;;;;;;;;;;;4983676;28;19921;-76
2023/01/17 17:26:17;;;;;;;;;;;;;;;;;;4992470;28;19922;-76
2023/01/17 17:28:44;;;;;;;;;;;;;;;;;;5000941;28;19921;-76
2023/01/17 17:31:10;;;;;;;;;;;;;;;;;;5003929;28;19921;-77
2023/01/17 17:33:37;;;;;;;;;;;;;;;;;;4996286;28;19929;-75
2023/01/17 17:36:03;;;;;;;;;;;;;;;;;;4992374;28;20519;-76
2023/01/17 17:38:33;;;;;;;;;;;;;;;;;;4991691;28;19988;-75
2023/01/17 17:40:59;;;;;;;;;;;;;;;;;;4974751;28;19977;-77
2023/01/17 17:43:26;;;;;;;;;;;;;;;;;;4989248;28;19921;-75
2023/01/17 17:45:52;;;;;;;;;;;;;;;;;;4972758;28;19918;-75
2023/01/17 17:48:19;;;;;;;;;;;;;;;;;;4991885;28;19922;-74
2023/01/17 17:50:45;;;;;;;;;;;;;;;;;;5008831;28;19972;-75
2023/01/17 17:53:11;;;;;;;;;;;;;;;;;;4979187;28;20605;-74
2023/01/17 17:55:39;;;;;;;;;;;;;;;;;;5000905;28;20441;-74
2023/01/17 17:58:06;;;;;;;;;;;;;;;;;;4986919;28;19925;-75
2023/01/17 18:00:32;;;;;;;;;;;;;;;;;;4998458;28;19929;-76